createdAt,value
2022-12-06T00:01:47.120Z,99163.00
2022-12-06T00:04:18.310Z,99165.00
2022-12-06T00:06:52.417Z,99173.00
2022-12-06T00:09:25.401Z,99168.00
2022-12-06T00:11:55.363Z,99176.00
2022-12-06T00:14:26.963Z,99172.00
2022-12-06T00:16:56.479Z,99183.00
2022-12-06T00:19:26.576Z,99184.00
2022-12-06T00:21:55.829Z,99183.00
2022-12-06T00:24:28.379Z,99194.00
2022-12-06T00:26:57.607Z,99194.00
2022-12-06T00:29:27.078Z,99201.00
2022-12-06T00:31:56.373Z,99208.00
2022-12-06T00:34:25.780Z,99216.00
2022-12-06T00:36:55.171Z,99220.00
2022-12-06T00:39:24.620Z,99226.00
2022-12-06T00:41:57.216Z,99230.00
2022-12-06T00:44:26.384Z,99233.00
2022-12-06T00:46:55.551Z,99240.00
2022-12-06T00:49:25.185Z,99230.00
2022-12-06T00:51:54.409Z,99238.00
2022-12-06T00:54:23.610Z,99238.00
2022-12-06T00:56:53.029Z,99238.00
2022-12-06T00:59:22.273Z,99237.00
2022-12-06T01:01:51.572Z,99242.00
2022-12-06T01:04:20.874Z,99252.00
2022-12-06T01:06:50.331Z,99253.00
2022-12-06T01:09:19.790Z,99251.00
2022-12-06T01:11:49.015Z,99252.00
2022-12-06T01:14:18.179Z,99255.00
2022-12-06T01:16:47.695Z,99254.00
2022-12-06T01:19:17.369Z,99252.00
2022-12-06T01:21:46.596Z,99255.00
2022-12-06T01:24:15.704Z,99257.00
2022-12-06T01:26:44.919Z,99260.00
2022-12-06T01:29:14.060Z,99260.00
2022-12-06T01:31:43.228Z,99262.00
2022-12-06T01:34:18.392Z,99260.00
2022-12-06T01:36:47.626Z,99266.00
2022-12-06T01:39:16.785Z,99271.00
2022-12-06T01:41:46.017Z,99270.00
2022-12-06T01:44:45.533Z,99271.00
2022-12-06T01:47:20.965Z,99271.00
2022-12-06T01:50:05.715Z,99272.00
2022-12-06T01:53:06.503Z,99277.00
2022-12-06T01:55:40.032Z,99274.00
2022-12-06T01:58:26.236Z,99274.00
2022-12-06T02:00:55.809Z,99281.00
2022-12-06T02:03:30.230Z,99274.00
2022-12-06T02:06:01.539Z,99274.00
2022-12-06T02:08:33.947Z,99271.00
2022-12-06T02:11:10.888Z,99281.00
2022-12-06T02:13:46.436Z,99276.00
2022-12-06T02:16:31.198Z,99269.00
2022-12-06T02:19:45.710Z,99268.00
2022-12-06T02:22:29.116Z,99269.00
2022-12-06T02:25:30.479Z,99275.00
2022-12-06T02:28:25.624Z,99276.00
2022-12-06T02:31:18.152Z,99273.00
2022-12-06T02:33:49.826Z,99265.00
2022-12-06T02:37:04.442Z,99259.00
2022-12-06T02:40:04.944Z,99261.00
2022-12-06T02:43:02.825Z,99265.00
2022-12-06T02:45:40.086Z,99260.00
2022-12-06T02:48:11.650Z,99256.00
2022-12-06T02:51:01.925Z,99259.00
2022-12-06T02:53:35.901Z,99262.00
2022-12-06T02:56:05.348Z,99251.00
2022-12-06T02:58:39.242Z,99262.00
2022-12-06T03:01:36.017Z,99248.00
2022-12-06T03:04:17.353Z,99249.00
2022-12-06T03:07:22.890Z,99245.00
2022-12-06T03:10:19.032Z,99239.00
2022-12-06T03:13:15.731Z,99231.00
2022-12-06T03:16:01.654Z,99231.00
2022-12-06T03:19:15.260Z,99235.00
2022-12-06T03:22:39.372Z,99231.00
2022-12-06T03:25:11.720Z,99230.00
2022-12-06T03:27:43.628Z,99220.00
2022-12-06T03:30:15.129Z,99222.00
2022-12-06T03:32:49.999Z,99215.00
2022-12-06T03:35:32.658Z,99222.00
2022-12-06T03:38:13.090Z,99216.00
2022-12-06T03:40:49.378Z,99207.00
2022-12-06T03:43:18.755Z,99208.00
2022-12-06T03:46:05.838Z,99202.00
2022-12-06T03:48:56.499Z,99193.00
2022-12-06T03:51:33.541Z,99190.00
2022-12-06T03:54:08.548Z,99186.00
2022-12-06T03:56:40.550Z,99190.00
2022-12-06T03:59:11.696Z,99187.00
2022-12-06T04:01:41.481Z,99180.00
2022-12-06T04:04:12.225Z,99179.00
2022-12-06T04:06:41.419Z,99172.00
2022-12-06T04:09:28.825Z,99170.00
2022-12-06T04:11:58.014Z,99168.00
2022-12-06T04:14:33.313Z,99169.00
2022-12-06T04:17:20.506Z,99164.00
2022-12-06T04:19:52.103Z,99157.00
2022-12-06T04:22:39.675Z,99159.00
2022-12-06T04:25:09.275Z,99148.00
2022-12-06T04:27:56.913Z,99148.00
2022-12-06T04:30:44.452Z,99145.00
2022-12-06T04:33:31.782Z,99139.00
2022-12-06T04:36:19.288Z,99133.00
2022-12-06T04:38:48.619Z,99132.00
2022-12-06T04:41:37.586Z,99127.00
2022-12-06T04:44:08.024Z,99119.00
2022-12-06T04:46:37.359Z,99112.00
2022-12-06T04:49:06.932Z,99111.00
2022-12-06T04:51:36.782Z,99103.00
2022-12-06T04:54:06.590Z,99093.00
2022-12-06T04:56:36.179Z,99094.00
2022-12-06T04:59:05.439Z,99091.00
2022-12-06T05:01:34.594Z,99084.00
2022-12-06T05:04:03.914Z,99071.00
2022-12-06T05:06:33.196Z,99071.00
2022-12-06T05:09:02.581Z,99055.00
2022-12-06T05:11:31.828Z,99057.00
2022-12-06T05:14:02.132Z,99052.00
2022-12-06T05:16:31.814Z,99057.00
2022-12-06T05:19:01.348Z,99048.00
2022-12-06T05:21:30.532Z,99035.00
2022-12-06T05:23:59.911Z,99025.00
2022-12-06T05:26:30.893Z,99024.00
2022-12-06T05:29:01.311Z,99014.00
2022-12-06T05:31:30.511Z,99008.00
2022-12-06T05:33:59.701Z,99003.00
2022-12-06T05:36:29.950Z,98999.00
2022-12-06T05:38:59.416Z,98996.00
2022-12-06T05:41:28.493Z,98993.00
2022-12-06T05:43:58.691Z,98997.00
2022-12-06T05:46:27.856Z,98981.00
2022-12-06T05:48:57.108Z,98978.00
2022-12-06T05:51:26.180Z,98978.00
2022-12-06T05:53:55.818Z,98976.00
2022-12-06T05:56:24.951Z,98968.00
2022-12-06T05:58:53.970Z,98961.00
2022-12-06T06:01:23.112Z,98956.00
2022-12-06T06:03:52.178Z,98946.00
2022-12-06T06:06:22.236Z,98945.00
2022-12-06T06:08:53.607Z,98936.00
2022-12-06T06:11:23.175Z,98934.00
2022-12-06T06:13:52.400Z,98934.00
2022-12-06T06:16:22.576Z,98925.00
2022-12-06T06:18:51.679Z,98919.00
2022-12-06T06:21:20.811Z,98926.00
2022-12-06T06:23:50.695Z,98914.00
2022-12-06T06:26:19.769Z,98912.00
2022-12-06T06:28:48.857Z,98911.00
2022-12-06T06:31:18.011Z,98901.00
2022-12-06T06:33:47.342Z,98895.00
2022-12-06T06:36:16.468Z,98888.00
2022-12-06T06:38:45.813Z,98891.00
2022-12-06T06:41:15.167Z,98891.00
2022-12-06T06:43:44.308Z,98888.00
2022-12-06T06:46:13.461Z,98876.00
2022-12-06T06:48:42.654Z,98877.00
2022-12-06T06:51:15.767Z,98871.00
2022-12-06T06:53:44.945Z,98862.00
2022-12-06T06:56:14.141Z,98859.00
2022-12-06T06:58:43.240Z,98855.00
2022-12-06T07:01:21.916Z,98854.00
2022-12-06T07:03:55.394Z,98838.00
2022-12-06T07:06:24.734Z,98838.00
2022-12-06T07:08:53.842Z,98842.00
2022-12-06T07:11:23.001Z,98847.00
2022-12-06T07:13:52.866Z,98843.00
2022-12-06T07:16:22.833Z,98836.00
2022-12-06T07:18:52.560Z,98831.00
2022-12-06T07:21:24.507Z,98829.00
2022-12-06T07:23:53.923Z,98821.00
2022-12-06T07:26:25.311Z,98824.00
2022-12-06T07:28:54.370Z,98816.00
2022-12-06T07:31:29.613Z,98815.00
2022-12-06T07:34:04.247Z,98810.00
2022-12-06T07:36:34.630Z,98815.00
2022-12-06T07:39:03.703Z,98808.00
2022-12-06T07:41:50.985Z,98809.00
2022-12-06T07:44:38.665Z,98798.00
2022-12-06T07:47:07.779Z,98801.00
2022-12-06T07:49:36.907Z,98800.00
2022-12-06T07:52:06.069Z,98792.00
2022-12-06T07:54:35.210Z,98781.00
2022-12-06T07:57:04.374Z,98791.00
2022-12-06T07:59:33.444Z,98784.00
2022-12-06T08:02:02.597Z,98782.00
2022-12-06T08:04:32.000Z,98774.00
2022-12-06T08:07:01.778Z,98772.00
2022-12-06T08:09:30.894Z,98772.00
2022-12-06T08:12:00.245Z,98776.00
2022-12-06T08:14:29.375Z,98770.00
2022-12-06T08:16:58.813Z,98762.00
2022-12-06T08:19:28.217Z,98764.00
2022-12-06T08:21:57.684Z,98764.00
2022-12-06T08:24:27.024Z,98765.00
2022-12-06T08:26:58.436Z,98760.00
2022-12-06T08:29:28.461Z,98761.00
2022-12-06T08:31:57.624Z,98756.00
2022-12-06T08:34:26.688Z,98755.00
2022-12-06T08:37:00.275Z,98755.00
2022-12-06T08:39:32.413Z,98762.00
2022-12-06T08:42:03.894Z,98755.00
2022-12-06T08:44:34.444Z,98760.00
2022-12-06T08:47:04.327Z,98755.00
2022-12-06T08:49:33.645Z,98754.00
2022-12-06T08:52:02.822Z,98754.00
2022-12-06T08:54:32.056Z,98754.00
2022-12-06T08:57:01.130Z,98761.00
2022-12-06T08:59:30.285Z,98763.00
2022-12-06T09:01:59.518Z,98761.00
2022-12-06T09:04:29.238Z,98756.00
2022-12-06T09:06:58.329Z,98755.00
2022-12-06T09:09:27.570Z,98760.00
2022-12-06T09:11:56.663Z,98756.00
2022-12-06T09:14:25.749Z,98760.00
2022-12-06T09:16:55.302Z,98756.00
2022-12-06T09:19:24.404Z,98759.00
2022-12-06T09:21:53.493Z,98753.00
2022-12-06T09:24:23.104Z,98758.00
2022-12-06T09:26:52.164Z,98757.00
2022-12-06T09:29:21.489Z,98754.00
2022-12-06T09:31:50.990Z,98760.00
2022-12-06T09:34:20.079Z,98761.00
2022-12-06T09:37:10.121Z,98757.00
2022-12-06T09:39:45.813Z,98758.00
2022-12-06T09:42:34.996Z,98762.00
2022-12-06T09:45:40.675Z,98766.00
2022-12-06T09:48:55.760Z,98762.00
2022-12-06T09:51:54.881Z,98771.00
2022-12-06T09:54:36.397Z,98771.00
2022-12-06T09:57:30.684Z,98773.00
2022-12-06T10:00:24.318Z,98773.00
2022-12-06T10:03:37.147Z,98783.00
2022-12-06T10:06:15.634Z,98796.00
2022-12-06T10:09:21.636Z,98788.00
2022-12-06T10:13:04.202Z,98795.00
2022-12-06T10:16:07.893Z,98794.00
2022-12-06T10:19:36.430Z,98801.00
2022-12-06T10:22:39.219Z,98798.00
2022-12-06T10:25:41.222Z,98807.00
2022-12-06T10:28:15.279Z,98807.00
2022-12-06T10:31:18.801Z,98807.00
2022-12-06T10:34:04.112Z,98811.00
2022-12-06T10:37:26.396Z,98814.00
2022-12-06T10:40:14.271Z,98815.00
2022-12-06T10:43:22.059Z,98817.00
2022-12-06T10:46:36.218Z,98816.00
2022-12-06T10:49:32.952Z,98823.00
2022-12-06T10:52:19.078Z,98829.00
2022-12-06T10:55:12.915Z,98833.00
2022-12-06T10:57:49.428Z,98833.00
2022-12-06T11:00:32.428Z,98829.00
2022-12-06T11:03:42.668Z,98832.00
2022-12-06T11:06:44.441Z,98834.00
2022-12-06T11:09:38.159Z,98834.00
2022-12-06T11:12:35.742Z,98836.00
2022-12-06T11:15:19.595Z,98837.00
2022-12-06T11:18:02.696Z,98835.00
2022-12-06T11:21:28.458Z,98846.00
2022-12-06T11:24:34.973Z,98846.00
2022-12-06T11:27:42.267Z,98850.00
2022-12-06T11:30:20.526Z,98854.00
2022-12-06T11:32:53.836Z,98858.00
2022-12-06T11:35:28.874Z,98851.00
2022-12-06T11:38:06.391Z,98858.00
2022-12-06T11:40:43.421Z,98857.00
2022-12-06T11:43:36.919Z,98866.00
2022-12-06T11:46:11.530Z,98870.00
2022-12-06T11:48:40.877Z,98870.00
2022-12-06T11:51:26.510Z,98873.00
2022-12-06T11:54:06.963Z,98875.00
2022-12-06T11:56:41.216Z,98887.00
2022-12-06T11:59:29.588Z,98883.00
2022-12-06T12:02:04.495Z,98886.00
2022-12-06T12:04:44.973Z,98891.00
2022-12-06T12:07:23.824Z,98885.00
2022-12-06T12:10:04.370Z,98889.00
2022-12-06T12:13:04.586Z,98896.00
2022-12-06T12:15:35.979Z,98898.00
2022-12-06T12:18:20.143Z,98906.00
2022-12-06T12:20:50.346Z,98909.00
2022-12-06T12:23:31.351Z,98910.00
2022-12-06T12:26:21.670Z,98913.00
2022-12-06T12:29:18.817Z,98918.00
2022-12-06T12:32:00.932Z,98914.00
2022-12-06T12:34:32.567Z,98925.00
2022-12-06T12:37:05.800Z,98927.00
2022-12-06T12:39:56.161Z,98930.00
2022-12-06T12:42:43.548Z,98931.00
2022-12-06T12:45:21.085Z,98936.00
2022-12-06T12:48:03.421Z,98947.00
2022-12-06T12:50:35.158Z,98946.00
2022-12-06T12:53:04.404Z,98952.00
2022-12-06T12:55:33.725Z,98960.00
2022-12-06T12:58:03.334Z,98962.00
2022-12-06T13:00:45.112Z,98967.00
2022-12-06T13:03:50.249Z,98968.00
2022-12-06T13:06:33.509Z,98979.00
2022-12-06T13:09:07.029Z,98976.00
2022-12-06T13:11:49.499Z,98984.00
2022-12-06T13:14:24.049Z,98989.00
2022-12-06T13:16:59.168Z,98987.00
2022-12-06T13:19:51.637Z,98986.00
2022-12-06T13:22:32.721Z,98988.00
2022-12-06T13:25:12.738Z,98987.00
2022-12-06T13:27:49.764Z,98985.00
2022-12-06T13:30:22.413Z,98991.00
2022-12-06T13:33:19.351Z,98988.00
2022-12-06T13:36:10.707Z,98991.00
2022-12-06T13:38:42.727Z,98996.00
2022-12-06T13:42:00.024Z,99010.00
2022-12-06T13:44:54.396Z,99000.00
2022-12-06T13:47:29.743Z,99007.00
2022-12-06T13:50:24.621Z,99011.00
2022-12-06T13:52:53.729Z,99013.00
2022-12-06T13:55:31.805Z,99019.00
2022-12-06T13:58:00.941Z,99017.00
2022-12-06T14:00:32.831Z,99019.00
2022-12-06T14:03:18.229Z,99021.00
2022-12-06T14:06:15.747Z,99020.00
2022-12-06T14:09:05.731Z,99028.00
2022-12-06T14:11:39.687Z,99021.00
2022-12-06T14:14:24.896Z,99031.00
2022-12-06T14:17:06.358Z,99030.00
2022-12-06T14:19:46.509Z,99030.00
2022-12-06T14:22:39.250Z,99031.00
2022-12-06T14:25:29.419Z,99033.00
2022-12-06T14:28:13.568Z,99036.00
2022-12-06T14:30:47.800Z,99038.00
2022-12-06T14:33:26.200Z,99048.00
2022-12-06T14:35:57.665Z,99042.00
2022-12-06T14:38:32.630Z,99042.00
2022-12-06T14:41:23.240Z,99047.00
2022-12-06T14:43:52.394Z,99049.00
2022-12-06T14:46:24.911Z,99044.00
2022-12-06T14:49:17.889Z,99055.00
2022-12-06T14:51:47.089Z,99042.00
2022-12-06T14:54:46.960Z,99039.00
2022-12-06T14:57:37.780Z,99039.00
2022-12-06T15:00:32.423Z,99038.00
2022-12-06T15:03:10.179Z,99043.00
2022-12-06T15:05:51.138Z,99040.00
2022-12-06T15:08:33.403Z,99042.00
2022-12-06T15:11:12.750Z,99037.00
2022-12-06T15:13:42.372Z,99038.00
2022-12-06T15:16:17.475Z,99044.00
2022-12-06T15:19:01.888Z,99047.00
2022-12-06T15:21:30.991Z,99044.00
2022-12-06T15:24:00.089Z,99041.00
2022-12-06T15:26:29.171Z,99054.00
2022-12-06T15:28:58.471Z,99050.00
2022-12-06T15:31:30.829Z,99047.00
2022-12-06T15:34:02.396Z,99052.00
2022-12-06T15:36:34.201Z,99050.00
2022-12-06T15:39:03.361Z,99052.00
2022-12-06T15:41:32.410Z,99043.00
2022-12-06T15:44:01.460Z,99042.00
2022-12-06T15:46:33.633Z,99042.00
2022-12-06T15:49:02.739Z,99048.00
2022-12-06T15:51:31.948Z,99048.00
2022-12-06T15:54:03.811Z,99053.00
2022-12-06T15:56:33.325Z,99048.00
2022-12-06T15:59:02.363Z,99048.00
2022-12-06T16:01:43.339Z,99047.00
2022-12-06T16:04:24.079Z,99049.00
2022-12-06T16:06:53.333Z,99042.00
2022-12-06T16:09:22.579Z,99044.00
2022-12-06T16:11:51.841Z,99040.00
2022-12-06T16:14:20.935Z,99038.00
2022-12-06T16:16:50.414Z,99041.00
2022-12-06T16:19:19.762Z,99047.00
2022-12-06T16:21:59.017Z,99042.00
2022-12-06T16:24:28.120Z,99034.00
2022-12-06T16:26:57.275Z,99031.00
2022-12-06T16:29:26.338Z,99036.00
2022-12-06T16:31:55.599Z,99036.00
2022-12-06T16:34:25.956Z,99027.00
2022-12-06T16:37:02.866Z,99026.00
2022-12-06T16:39:35.822Z,99022.00
2022-12-06T16:42:06.976Z,99018.00
2022-12-06T16:44:51.814Z,99015.00
2022-12-06T16:49:49.334Z,99010.00
2022-12-06T16:52:19.166Z,99005.00
2022-12-06T16:54:48.590Z,99001.00
2022-12-06T16:57:20.266Z,98999.00
2022-12-06T16:59:49.859Z,98989.00
2022-12-06T17:02:33.275Z,98994.00
2022-12-06T17:05:07.236Z,98992.00
2022-12-06T17:07:37.770Z,98995.00
2022-12-06T17:10:08.273Z,98991.00
2022-12-06T17:12:37.457Z,98997.00
2022-12-06T17:15:09.525Z,98993.00
2022-12-06T17:17:38.685Z,98992.00
2022-12-06T17:20:10.899Z,98994.00
2022-12-06T17:22:41.100Z,99000.00
2022-12-06T17:25:12.478Z,99003.00
2022-12-06T17:27:42.558Z,98999.00
2022-12-06T17:30:20.975Z,99001.00
2022-12-06T17:32:50.086Z,98998.00
2022-12-06T17:35:19.293Z,99007.00
2022-12-06T17:37:48.428Z,99001.00
2022-12-06T17:40:22.394Z,99004.00
2022-12-06T17:43:00.268Z,99011.00
2022-12-06T17:45:29.900Z,99009.00
2022-12-06T17:47:59.151Z,99009.00
2022-12-06T17:50:28.466Z,99012.00
2022-12-06T17:52:57.697Z,99010.00
2022-12-06T17:55:27.838Z,99010.00
2022-12-06T17:57:57.081Z,99002.00
2022-12-06T18:00:26.461Z,99000.00
2022-12-06T18:02:55.668Z,99009.00
2022-12-06T18:05:24.942Z,99004.00
2022-12-06T18:07:54.158Z,99000.00
2022-12-06T18:10:23.517Z,99000.00
2022-12-06T18:12:52.649Z,99005.00
2022-12-06T18:15:42.804Z,99000.00
2022-12-06T18:18:14.534Z,98999.00
2022-12-06T18:20:44.873Z,99001.00
2022-12-06T18:23:14.032Z,98993.00
2022-12-06T18:25:47.368Z,98995.00
2022-12-06T18:28:16.485Z,98982.00
2022-12-06T18:30:45.588Z,98989.00
2022-12-06T18:33:21.023Z,98989.00
2022-12-06T18:35:54.896Z,98986.00
2022-12-06T18:38:23.957Z,98986.00
2022-12-06T18:40:53.262Z,98982.00
2022-12-06T18:43:22.362Z,98974.00
2022-12-06T18:45:59.361Z,98976.00
2022-12-06T18:48:29.596Z,98978.00
2022-12-06T18:51:00.097Z,98979.00
2022-12-06T18:53:29.197Z,98989.00
2022-12-06T18:55:58.279Z,98982.00
2022-12-06T18:58:27.384Z,98981.00
2022-12-06T19:00:56.541Z,98986.00
2022-12-06T19:03:25.851Z,98983.00
2022-12-06T19:06:02.865Z,98977.00
2022-12-06T19:08:32.312Z,98981.00
2022-12-06T19:11:04.426Z,98978.00
2022-12-06T19:13:33.536Z,98977.00
2022-12-06T19:16:06.974Z,98981.00
2022-12-06T19:18:36.366Z,98965.00
2022-12-06T19:21:05.574Z,98973.00
2022-12-06T19:23:34.902Z,98974.00
2022-12-06T19:26:07.829Z,98971.00
2022-12-06T19:28:40.966Z,98969.00
2022-12-06T19:31:13.192Z,98968.00
2022-12-06T19:33:49.738Z,98967.00
2022-12-06T19:36:29.739Z,98962.00
2022-12-06T19:39:02.221Z,98968.00
2022-12-06T19:41:32.220Z,98965.00
2022-12-06T19:44:16.604Z,98962.00
2022-12-06T19:46:48.726Z,98958.00
2022-12-06T19:49:21.213Z,98957.00
2022-12-06T19:51:52.056Z,98955.00
2022-12-06T19:54:28.240Z,98955.00
2022-12-06T19:57:00.373Z,98949.00
2022-12-06T19:59:34.711Z,98954.00
2022-12-06T20:02:06.359Z,98954.00
2022-12-06T20:04:42.440Z,98952.00
2022-12-06T20:07:11.821Z,98954.00
2022-12-06T20:09:41.029Z,98957.00
2022-12-06T20:12:10.346Z,98960.00
2022-12-06T20:14:47.974Z,98956.00
2022-12-06T20:17:24.600Z,98954.00
2022-12-06T20:19:53.769Z,98955.00
2022-12-06T20:22:23.698Z,98963.00
2022-12-06T20:24:52.857Z,98959.00
2022-12-06T20:27:41.853Z,98957.00
2022-12-06T20:30:11.936Z,98955.00
2022-12-06T20:32:41.093Z,98954.00
2022-12-06T20:35:10.601Z,98958.00
2022-12-06T20:37:39.865Z,98954.00
2022-12-06T20:40:10.418Z,98953.00
2022-12-06T20:42:39.552Z,98953.00
2022-12-06T20:45:09.563Z,98953.00
2022-12-06T20:47:38.751Z,98956.00
2022-12-06T20:50:08.719Z,98948.00
2022-12-06T20:52:37.884Z,98950.00
2022-12-06T20:55:07.493Z,98950.00
2022-12-06T20:57:36.980Z,98960.00
2022-12-06T21:00:08.962Z,98960.00
2022-12-06T21:02:38.799Z,98960.00
2022-12-06T21:05:08.420Z,98956.00
2022-12-06T21:07:38.057Z,98952.00
2022-12-06T21:10:08.478Z,98951.00
2022-12-06T21:12:37.638Z,98945.00
2022-12-06T21:15:07.899Z,98956.00
2022-12-06T21:17:37.768Z,98951.00
2022-12-06T21:20:07.779Z,98954.00
2022-12-06T21:22:36.857Z,98960.00
2022-12-06T21:25:07.534Z,98967.00
2022-12-06T21:27:36.786Z,98959.00
2022-12-06T21:30:06.848Z,98958.00
2022-12-06T21:32:36.496Z,98965.00
2022-12-06T21:35:06.590Z,98969.00
2022-12-06T21:37:36.110Z,98971.00
2022-12-06T21:40:06.372Z,98965.00
2022-12-06T21:42:35.470Z,98968.00
2022-12-06T21:45:04.800Z,98968.00
2022-12-06T21:47:33.923Z,98977.00
2022-12-06T21:50:03.341Z,98979.00
2022-12-06T21:52:32.697Z,98982.00
2022-12-06T21:55:01.878Z,98980.00
2022-12-06T21:57:30.933Z,98984.00
2022-12-06T22:00:00.239Z,98974.00
2022-12-06T22:02:30.017Z,98982.00
2022-12-06T22:04:59.203Z,98982.00
2022-12-06T22:07:28.271Z,98991.00
2022-12-06T22:09:57.377Z,98983.00
2022-12-06T22:12:26.554Z,98984.00
2022-12-06T22:14:56.972Z,98989.00
2022-12-06T22:17:26.442Z,98988.00
2022-12-06T22:19:55.490Z,98997.00
2022-12-06T22:22:24.585Z,99002.00
2022-12-06T22:24:54.957Z,99005.00
2022-12-06T22:27:24.027Z,99012.00
2022-12-06T22:29:54.919Z,99016.00
2022-12-06T22:32:24.100Z,99019.00
2022-12-06T22:34:53.180Z,99025.00
2022-12-06T22:37:28.216Z,99028.00
2022-12-06T22:39:57.631Z,99029.00
2022-12-06T22:42:26.677Z,99035.00
2022-12-06T22:44:55.753Z,99030.00
2022-12-06T22:47:24.843Z,99031.00
2022-12-06T22:49:53.957Z,99031.00
2022-12-06T22:52:23.014Z,99033.00
2022-12-06T22:54:52.133Z,99043.00
2022-12-06T22:57:21.210Z,99049.00
2022-12-06T22:59:50.293Z,99050.00
2022-12-06T23:02:19.530Z,99060.00
2022-12-06T23:04:48.611Z,99060.00
2022-12-06T23:07:17.759Z,99061.00
2022-12-06T23:09:46.810Z,99064.00
2022-12-06T23:12:15.894Z,99059.00
2022-12-06T23:14:45.017Z,99070.00
2022-12-06T23:17:14.435Z,99068.00
2022-12-06T23:19:43.523Z,99072.00
2022-12-06T23:22:12.643Z,99075.00
2022-12-06T23:24:41.833Z,99075.00
2022-12-06T23:27:11.113Z,99083.00
2022-12-06T23:29:40.353Z,99086.00
2022-12-06T23:32:11.798Z,99099.00
2022-12-06T23:34:41.014Z,99095.00
2022-12-06T23:37:10.087Z,99101.00
2022-12-06T23:39:42.053Z,99099.00
2022-12-06T23:42:11.147Z,99101.00
2022-12-06T23:44:40.952Z,99106.00
2022-12-06T23:47:10.085Z,99108.00
2022-12-06T23:49:39.147Z,99118.00
2022-12-06T23:52:08.208Z,99117.00
2022-12-06T23:54:38.188Z,99120.00
2022-12-06T23:57:07.294Z,99115.00
2022-12-06T23:59:36.457Z,99120.00
